sensor_id;sensor_type;location;lat;lon;timestamp;pressure;altitude;pressure_sealevel;temperature;humidity
70198;BME280;57582;-34.876;138.628;2023-04-29T00:01:21;101174;;;14.83;71.95
70198;BME280;57582;-34.876;138.628;2023-04-29T00:04:21;101162;;;14.86;69.76
70198;BME280;57582;-34.876;138.628;2023-04-29T00:07:21;101167;;;14.82;70.89
70198;BME280;57582;-34.876;138.628;2023-04-29T00:10:21;101167;;;14.90;70.10
70198;BME280;57582;-34.876;138.628;2023-04-29T00:13:21;101168;;;14.94;69.79
70198;BME280;57582;-34.876;138.628;2023-04-29T00:16:21;101169;;;14.98;68.48
70198;BME280;57582;-34.876;138.628;2023-04-29T00:19:21;101167;;;14.79;68.70
70198;BME280;57582;-34.876;138.628;2023-04-29T00:22:21;101164;;;14.87;68.43
70198;BME280;57582;-34.876;138.628;2023-04-29T00:25:21;101166;;;14.91;68.25
70198;BME280;57582;-34.876;138.628;2023-04-29T00:28:21;101161;;;14.84;68.94
70198;BME280;57582;-34.876;138.628;2023-04-29T00:31:21;101160;;;14.99;67.26
70198;BME280;57582;-34.876;138.628;2023-04-29T00:34:21;101158;;;15.02;67.61
70198;BME280;57582;-34.876;138.628;2023-04-29T00:37:21;101154;;;15.17;67.67
70198;BME280;57582;-34.876;138.628;2023-04-29T00:40:21;101157;;;15.05;66.62
70198;BME280;57582;-34.876;138.628;2023-04-29T00:43:21;101157;;;15.29;67.29
70198;BME280;57582;-34.876;138.628;2023-04-29T00:46:21;101157;;;15.15;65.42
70198;BME280;57582;-34.876;138.628;2023-04-29T00:49:21;101159;;;15.28;66.79
70198;BME280;57582;-34.876;138.628;2023-04-29T00:52:21;101151;;;15.44;65.72
70198;BME280;57582;-34.876;138.628;2023-04-29T00:55:21;101156;;;15.66;64.44
70198;BME280;57582;-34.876;138.628;2023-04-29T00:58:21;101150;;;15.92;63.20
70198;BME280;57582;-34.876;138.628;2023-04-29T01:01:21;101151;;;16.15;62.05
70198;BME280;57582;-34.876;138.628;2023-04-29T01:04:21;101154;;;16.46;62.27
70198;BME280;57582;-34.876;138.628;2023-04-29T01:07:23;101151;;;16.58;61.46
70198;BME280;57582;-34.876;138.628;2023-04-29T01:10:29;101135;;;16.87;60.02
70198;BME280;57582;-34.876;138.628;2023-04-29T01:16:22;101138;;;16.99;59.71
70198;BME280;57582;-34.876;138.628;2023-04-29T01:22:21;101140;;;16.59;59.59
70198;BME280;57582;-34.876;138.628;2023-04-29T01:25:21;101144;;;16.70;57.98
70198;BME280;57582;-34.876;138.628;2023-04-29T01:28:27;101135;;;16.53;58.32
70198;BME280;57582;-34.876;138.628;2023-04-29T01:31:27;101129;;;16.61;60.99
70198;BME280;57582;-34.876;138.628;2023-04-29T01:34:24;101129;;;16.59;56.76
70198;BME280;57582;-34.876;138.628;2023-04-29T01:37:26;101132;;;16.46;56.35
70198;BME280;57582;-34.876;138.628;2023-04-29T01:43:22;101117;;;16.95;58.19
70198;BME280;57582;-34.876;138.628;2023-04-29T01:46:21;101119;;;17.20;57.13
70198;BME280;57582;-34.876;138.628;2023-04-29T01:49:25;101119;;;17.38;56.66
70198;BME280;57582;-34.876;138.628;2023-04-29T01:52:21;101114;;;17.65;55.86
70198;BME280;57582;-34.876;138.628;2023-04-29T01:55:21;101110;;;17.92;55.30
70198;BME280;57582;-34.876;138.628;2023-04-29T01:58:21;101117;;;18.20;55.25
70198;BME280;57582;-34.876;138.628;2023-04-29T02:01:21;101108;;;18.18;50.86
70198;BME280;57582;-34.876;138.628;2023-04-29T02:04:21;101116;;;18.26;53.35
70198;BME280;57582;-34.876;138.628;2023-04-29T02:07:21;101105;;;17.44;54.17
70198;BME280;57582;-34.876;138.628;2023-04-29T02:10:21;101103;;;17.80;52.52
70198;BME280;57582;-34.876;138.628;2023-04-29T02:13:21;101103;;;17.87;52.42
70198;BME280;57582;-34.876;138.628;2023-04-29T02:16:21;101102;;;18.00;52.52
70198;BME280;57582;-34.876;138.628;2023-04-29T02:19:21;101092;;;18.39;51.80
70198;BME280;57582;-34.876;138.628;2023-04-29T02:22:21;101091;;;18.54;52.20
70198;BME280;57582;-34.876;138.628;2023-04-29T02:25:21;101091;;;17.95;54.64
70198;BME280;57582;-34.876;138.628;2023-04-29T02:28:21;101088;;;18.12;54.15
70198;BME280;57582;-34.876;138.628;2023-04-29T02:31:21;101087;;;18.33;52.50
70198;BME280;57582;-34.876;138.628;2023-04-29T02:34:22;101084;;;18.44;50.96
70198;BME280;57582;-34.876;138.628;2023-04-29T02:37:22;101078;;;18.69;50.98
70198;BME280;57582;-34.876;138.628;2023-04-29T02:40:21;101078;;;17.63;51.32
70198;BME280;57582;-34.876;138.628;2023-04-29T02:43:21;101076;;;17.82;50.02
70198;BME280;57582;-34.876;138.628;2023-04-29T02:46:21;101073;;;17.74;51.39
70198;BME280;57582;-34.876;138.628;2023-04-29T02:49:21;101065;;;17.77;51.45
70198;BME280;57582;-34.876;138.628;2023-04-29T02:52:21;101054;;;17.69;49.70
70198;BME280;57582;-34.876;138.628;2023-04-29T02:55:21;101054;;;17.89;51.38
70198;BME280;57582;-34.876;138.628;2023-04-29T02:58:23;101046;;;18.31;49.81
70198;BME280;57582;-34.876;138.628;2023-04-29T03:01:21;101047;;;18.60;48.96
70198;BME280;57582;-34.876;138.628;2023-04-29T03:04:21;101043;;;18.90;47.86
70198;BME280;57582;-34.876;138.628;2023-04-29T03:07:21;101043;;;18.54;47.30
70198;BME280;57582;-34.876;138.628;2023-04-29T03:10:21;101035;;;18.59;47.84
70198;BME280;57582;-34.876;138.628;2023-04-29T03:13:21;101032;;;18.79;47.40
70198;BME280;57582;-34.876;138.628;2023-04-29T03:16:21;101027;;;18.97;48.63
70198;BME280;57582;-34.876;138.628;2023-04-29T03:19:21;101032;;;19.09;47.55
70198;BME280;57582;-34.876;138.628;2023-04-29T03:22:22;101019;;;19.14;48.19
70198;BME280;57582;-34.876;138.628;2023-04-29T03:25:21;101017;;;19.08;47.07
70198;BME280;57582;-34.876;138.628;2023-04-29T03:28:21;101028;;;19.02;46.93
70198;BME280;57582;-34.876;138.628;2023-04-29T03:31:21;101018;;;19.01;44.58
70198;BME280;57582;-34.876;138.628;2023-04-29T03:34:22;101021;;;18.87;46.98
70198;BME280;57582;-34.876;138.628;2023-04-29T03:37:22;101008;;;19.04;47.32
70198;BME280;57582;-34.876;138.628;2023-04-29T03:40:21;101010;;;19.23;46.33
70198;BME280;57582;-34.876;138.628;2023-04-29T03:43:21;101002;;;19.48;46.36
70198;BME280;57582;-34.876;138.628;2023-04-29T03:46:22;101005;;;19.68;46.42
70198;BME280;57582;-34.876;138.628;2023-04-29T03:49:22;101005;;;19.63;46.25
70198;BME280;57582;-34.876;138.628;2023-04-29T03:52:21;101010;;;19.41;46.01
70198;BME280;57582;-34.876;138.628;2023-04-29T03:55:21;101009;;;19.52;43.59
70198;BME280;57582;-34.876;138.628;2023-04-29T03:58:22;101001;;;19.83;43.76
70198;BME280;57582;-34.876;138.628;2023-04-29T04:01:21;100993;;;20.11;44.20
70198;BME280;57582;-34.876;138.628;2023-04-29T04:04:21;100995;;;20.37;42.79
70198;BME280;57582;-34.876;138.628;2023-04-29T04:07:21;100990;;;20.63;41.70
70198;BME280;57582;-34.876;138.628;2023-04-29T04:10:21;100984;;;20.70;41.39
70198;BME280;57582;-34.876;138.628;2023-04-29T04:13:22;100975;;;20.60;41.33
70198;BME280;57582;-34.876;138.628;2023-04-29T04:16:21;100988;;;20.57;39.39
70198;BME280;57582;-34.876;138.628;2023-04-29T04:19:21;100983;;;20.37;40.75
70198;BME280;57582;-34.876;138.628;2023-04-29T04:22:21;100984;;;20.06;41.68
70198;BME280;57582;-34.876;138.628;2023-04-29T04:25:22;100983;;;20.06;42.18
70198;BME280;57582;-34.876;138.628;2023-04-29T04:28:21;100994;;;20.23;41.67
70198;BME280;57582;-34.876;138.628;2023-04-29T04:31:21;100991;;;19.51;41.80
70198;BME280;57582;-34.876;138.628;2023-04-29T04:34:22;100993;;;19.44;43.13
70198;BME280;57582;-34.876;138.628;2023-04-29T04:37:22;100990;;;19.46;43.06
70198;BME280;57582;-34.876;138.628;2023-04-29T04:40:21;100992;;;19.29;43.20
70198;BME280;57582;-34.876;138.628;2023-04-29T04:43:21;100988;;;19.49;43.12
70198;BME280;57582;-34.876;138.628;2023-04-29T04:46:22;100988;;;19.67;42.69
70198;BME280;57582;-34.876;138.628;2023-04-29T04:49:23;100986;;;19.81;42.34
70198;BME280;57582;-34.876;138.628;2023-04-29T04:52:21;100987;;;19.61;40.58
70198;BME280;57582;-34.876;138.628;2023-04-29T04:55:22;100989;;;19.48;39.47
70198;BME280;57582;-34.876;138.628;2023-04-29T04:58:22;100987;;;19.44;40.53
70198;BME280;57582;-34.876;138.628;2023-04-29T05:01:22;100987;;;19.53;40.53
70198;BME280;57582;-34.876;138.628;2023-04-29T05:04:21;100984;;;18.84;40.24
70198;BME280;57582;-34.876;138.628;2023-04-29T05:07:21;100977;;;19.06;39.44
70198;BME280;57582;-34.876;138.628;2023-04-29T05:10:21;100973;;;19.22;39.42
70198;BME280;57582;-34.876;138.628;2023-04-29T05:13:22;100978;;;19.25;40.21
70198;BME280;57582;-34.876;138.628;2023-04-29T05:16:21;100979;;;19.17;39.90
70198;BME280;57582;-34.876;138.628;2023-04-29T05:19:21;100981;;;19.16;39.93
70198;BME280;57582;-34.876;138.628;2023-04-29T05:22:21;100975;;;19.25;40.57
70198;BME280;57582;-34.876;138.628;2023-04-29T05:25:22;100975;;;19.48;40.40
70198;BME280;57582;-34.876;138.628;2023-04-29T05:28:21;100969;;;19.69;37.87
70198;BME280;57582;-34.876;138.628;2023-04-29T05:31:21;100973;;;19.88;37.20
70198;BME280;57582;-34.876;138.628;2023-04-29T05:34:22;100975;;;19.99;37.16
70198;BME280;57582;-34.876;138.628;2023-04-29T05:37:22;100980;;;20.00;35.70
70198;BME280;57582;-34.876;138.628;2023-04-29T05:40:22;100979;;;19.95;36.39
70198;BME280;57582;-34.876;138.628;2023-04-29T05:43:21;100973;;;19.93;37.62
70198;BME280;57582;-34.876;138.628;2023-04-29T05:46:21;100977;;;19.95;36.92
70198;BME280;57582;-34.876;138.628;2023-04-29T05:49:22;100984;;;19.97;38.54
70198;BME280;57582;-34.876;138.628;2023-04-29T05:52:21;100976;;;20.01;38.58
70198;BME280;57582;-34.876;138.628;2023-04-29T05:55:21;100986;;;19.83;37.58
70198;BME280;57582;-34.876;138.628;2023-04-29T05:58:21;100986;;;20.01;37.84
70198;BME280;57582;-34.876;138.628;2023-04-29T06:01:22;100981;;;20.14;37.50
70198;BME280;57582;-34.876;138.628;2023-04-29T06:04:21;100982;;;20.13;37.51
70198;BME280;57582;-34.876;138.628;2023-04-29T06:07:21;100985;;;20.20;38.06
70198;BME280;57582;-34.876;138.628;2023-04-29T06:10:22;100994;;;19.62;39.38
70198;BME280;57582;-34.876;138.628;2023-04-29T06:13:22;100986;;;19.78;39.15
70198;BME280;57582;-34.876;138.628;2023-04-29T06:16:21;100991;;;19.97;38.82
70198;BME280;57582;-34.876;138.628;2023-04-29T06:19:21;100991;;;20.00;38.47
70198;BME280;57582;-34.876;138.628;2023-04-29T06:22:22;100991;;;20.13;38.62
70198;BME280;57582;-34.876;138.628;2023-04-29T06:25:22;100988;;;20.12;38.90
70198;BME280;57582;-34.876;138.628;2023-04-29T06:28:21;100991;;;20.10;38.72
70198;BME280;57582;-34.876;138.628;2023-04-29T06:31:21;100997;;;19.61;38.58
70198;BME280;57582;-34.876;138.628;2023-04-29T06:34:22;100998;;;19.45;39.27
70198;BME280;57582;-34.876;138.628;2023-04-29T06:37:22;101000;;;19.17;39.83
70198;BME280;57582;-34.876;138.628;2023-04-29T06:40:21;100996;;;19.21;39.97
70198;BME280;57582;-34.876;138.628;2023-04-29T06:43:21;101003;;;19.37;40.35
70198;BME280;57582;-34.876;138.628;2023-04-29T06:46:22;101005;;;18.87;41.34
70198;BME280;57582;-34.876;138.628;2023-04-29T06:49:22;100996;;;19.03;40.96
70198;BME280;57582;-34.876;138.628;2023-04-29T06:52:21;101008;;;19.14;41.21
70198;BME280;57582;-34.876;138.628;2023-04-29T06:55:21;101006;;;19.21;41.35
70198;BME280;57582;-34.876;138.628;2023-04-29T06:58:22;101004;;;18.93;41.64
70198;BME280;57582;-34.876;138.628;2023-04-29T07:01:22;101010;;;19.02;41.98
70198;BME280;57582;-34.876;138.628;2023-04-29T07:04:21;101009;;;19.02;41.82
70198;BME280;57582;-34.876;138.628;2023-04-29T07:07:21;101014;;;18.94;42.44
70198;BME280;57582;-34.876;138.628;2023-04-29T07:10:22;101008;;;18.92;42.24
70198;BME280;57582;-34.876;138.628;2023-04-29T07:13:22;101016;;;18.95;42.45
70198;BME280;57582;-34.876;138.628;2023-04-29T07:16:21;101024;;;18.99;42.55
70198;BME280;57582;-34.876;138.628;2023-04-29T07:19:21;101026;;;19.06;42.52
70198;BME280;57582;-34.876;138.628;2023-04-29T07:22:22;101026;;;19.13;42.48
70198;BME280;57582;-34.876;138.628;2023-04-29T07:25:22;101034;;;19.15;42.06
70198;BME280;57582;-34.876;138.628;2023-04-29T07:28:21;101031;;;19.14;42.12
70198;BME280;57582;-34.876;138.628;2023-04-29T07:31:21;101036;;;19.08;42.39
70198;BME280;57582;-34.876;138.628;2023-04-29T07:34:22;101031;;;19.06;42.44
70198;BME280;57582;-34.876;138.628;2023-04-29T07:37:22;101038;;;19.07;42.65
70198;BME280;57582;-34.876;138.628;2023-04-29T07:40:22;101039;;;19.08;42.76
70198;BME280;57582;-34.876;138.628;2023-04-29T07:43:22;101044;;;19.01;43.45
70198;BME280;57582;-34.876;138.628;2023-04-29T07:46:22;101043;;;19.03;43.68
70198;BME280;57582;-34.876;138.628;2023-04-29T07:49:22;101048;;;19.10;44.15
70198;BME280;57582;-34.876;138.628;2023-04-29T07:52:21;101049;;;19.05;43.92
70198;BME280;57582;-34.876;138.628;2023-04-29T07:55:21;101051;;;19.12;44.05
70198;BME280;57582;-34.876;138.628;2023-04-29T07:58:22;101050;;;19.18;44.18
70198;BME280;57582;-34.876;138.628;2023-04-29T08:01:22;101055;;;19.27;44.04
70198;BME280;57582;-34.876;138.628;2023-04-29T08:04:21;101053;;;19.39;44.18
70198;BME280;57582;-34.876;138.628;2023-04-29T08:07:21;101057;;;19.54;44.08
70198;BME280;57582;-34.876;138.628;2023-04-29T08:10:22;101055;;;19.63;43.53
70198;BME280;57582;-34.876;138.628;2023-04-29T08:13:22;101055;;;19.70;43.63
70198;BME280;57582;-34.876;138.628;2023-04-29T08:16:21;101049;;;19.76;43.65
70198;BME280;57582;-34.876;138.628;2023-04-29T08:19:21;101052;;;19.80;43.50
70198;BME280;57582;-34.876;138.628;2023-04-29T08:22:22;101048;;;19.62;43.55
70198;BME280;57582;-34.876;138.628;2023-04-29T08:25:22;101054;;;19.64;43.88
70198;BME280;57582;-34.876;138.628;2023-04-29T08:28:22;101057;;;19.66;43.63
70198;BME280;57582;-34.876;138.628;2023-04-29T08:31:22;101058;;;19.72;43.45
70198;BME280;57582;-34.876;138.628;2023-04-29T08:34:22;101068;;;19.78;43.07
70198;BME280;57582;-34.876;138.628;2023-04-29T08:37:22;101075;;;19.92;43.01
70198;BME280;57582;-34.876;138.628;2023-04-29T08:40:22;101069;;;19.77;43.00
70198;BME280;57582;-34.876;138.628;2023-04-29T08:43:22;101075;;;19.87;43.35
70198;BME280;57582;-34.876;138.628;2023-04-29T08:46:23;101080;;;19.98;43.30
70198;BME280;57582;-34.876;138.628;2023-04-29T08:49:22;101086;;;20.05;42.82
70198;BME280;57582;-34.876;138.628;2023-04-29T08:52:22;101095;;;20.01;43.30
70198;BME280;57582;-34.876;138.628;2023-04-29T08:55:22;101100;;;19.87;43.84
70198;BME280;57582;-34.876;138.628;2023-04-29T08:58:22;101100;;;19.80;44.30
70198;BME280;57582;-34.876;138.628;2023-04-29T09:01:22;101096;;;19.72;44.58
70198;BME280;57582;-34.876;138.628;2023-04-29T09:04:35;101099;;;19.75;44.77
70198;BME280;57582;-34.876;138.628;2023-04-29T09:07:22;101106;;;19.73;44.87
70198;BME280;57582;-34.876;138.628;2023-04-29T09:10:22;101106;;;19.78;44.77
70198;BME280;57582;-34.876;138.628;2023-04-29T09:13:24;101111;;;19.76;45.03
70198;BME280;57582;-34.876;138.628;2023-04-29T09:16:22;101113;;;19.72;45.38
70198;BME280;57582;-34.876;138.628;2023-04-29T09:19:37;101110;;;19.66;45.68
70198;BME280;57582;-34.876;138.628;2023-04-29T09:22:23;101120;;;19.64;45.97
70198;BME280;57582;-34.876;138.628;2023-04-29T09:25:22;101115;;;19.63;46.20
70198;BME280;57582;-34.876;138.628;2023-04-29T09:28:22;101120;;;19.56;47.04
70198;BME280;57582;-34.876;138.628;2023-04-29T09:31:29;101113;;;19.42;48.06
70198;BME280;57582;-34.876;138.628;2023-04-29T09:34:31;101123;;;19.28;49.28
70198;BME280;57582;-34.876;138.628;2023-04-29T09:37:23;101125;;;19.26;49.41
70198;BME280;57582;-34.876;138.628;2023-04-29T09:40:30;101142;;;19.20;49.64
70198;BME280;57582;-34.876;138.628;2023-04-29T09:43:22;101141;;;19.10;50.03
70198;BME280;57582;-34.876;138.628;2023-04-29T09:46:22;101133;;;18.86;50.78
70198;BME280;57582;-34.876;138.628;2023-04-29T09:52:22;101144;;;18.66;51.95
70198;BME280;57582;-34.876;138.628;2023-04-29T09:55:22;101144;;;18.53;52.32
70198;BME280;57582;-34.876;138.628;2023-04-29T09:58:27;101141;;;18.48;52.45
70198;BME280;57582;-34.876;138.628;2023-04-29T10:01:22;101146;;;18.51;52.15
70198;BME280;57582;-34.876;138.628;2023-04-29T10:04:22;101146;;;18.42;52.55
70198;BME280;57582;-34.876;138.628;2023-04-29T10:07:22;101153;;;18.35;52.95
70198;BME280;57582;-34.876;138.628;2023-04-29T10:10:22;101147;;;18.25;52.81
70198;BME280;57582;-34.876;138.628;2023-04-29T10:13:23;101148;;;18.19;52.76
70198;BME280;57582;-34.876;138.628;2023-04-29T10:16:27;101157;;;18.08;53.38
70198;BME280;57582;-34.876;138.628;2023-04-29T10:22:31;101156;;;17.95;53.91
70198;BME280;57582;-34.876;138.628;2023-04-29T10:25:23;101156;;;17.90;54.04
70198;BME280;57582;-34.876;138.628;2023-04-29T10:28:22;101155;;;17.82;54.09
70198;BME280;57582;-34.876;138.628;2023-04-29T10:31:24;101161;;;17.81;53.98
70198;BME280;57582;-34.876;138.628;2023-04-29T10:34:22;101163;;;17.64;54.06
70198;BME280;57582;-34.876;138.628;2023-04-29T10:37:22;101155;;;17.61;54.25
70198;BME280;57582;-34.876;138.628;2023-04-29T10:40:27;101152;;;17.58;54.63
70198;BME280;57582;-34.876;138.628;2023-04-29T10:43:23;101153;;;17.50;54.43
70198;BME280;57582;-34.876;138.628;2023-04-29T10:46:23;101166;;;17.51;54.72
70198;BME280;57582;-34.876;138.628;2023-04-29T10:49:22;101167;;;17.49;54.85
70198;BME280;57582;-34.876;138.628;2023-04-29T10:52:22;101163;;;17.50;55.02
70198;BME280;57582;-34.876;138.628;2023-04-29T10:55:22;101162;;;17.36;54.51
70198;BME280;57582;-34.876;138.628;2023-04-29T11:01:26;101172;;;16.17;58.35
70198;BME280;57582;-34.876;138.628;2023-04-29T11:04:22;101167;;;16.20;58.40
70198;BME280;57582;-34.876;138.628;2023-04-29T11:07:25;101172;;;16.28;58.34
70198;BME280;57582;-34.876;138.628;2023-04-29T11:10:34;101169;;;16.26;58.28
70198;BME280;57582;-34.876;138.628;2023-04-29T11:13:25;101176;;;15.96;58.91
70198;BME280;57582;-34.876;138.628;2023-04-29T11:16:25;101176;;;16.03;58.75
70198;BME280;57582;-34.876;138.628;2023-04-29T11:19:23;101171;;;16.05;58.77
70198;BME280;57582;-34.876;138.628;2023-04-29T11:25:22;101180;;;15.74;60.11
70198;BME280;57582;-34.876;138.628;2023-04-29T11:28:23;101179;;;15.93;59.65
70198;BME280;57582;-34.876;138.628;2023-04-29T11:31:25;101188;;;15.76;59.82
70198;BME280;57582;-34.876;138.628;2023-04-29T11:34:24;101178;;;15.73;59.93
70198;BME280;57582;-34.876;138.628;2023-04-29T11:37:23;101187;;;15.93;59.59
70198;BME280;57582;-34.876;138.628;2023-04-29T11:40:22;101187;;;16.11;59.08
70198;BME280;57582;-34.876;138.628;2023-04-29T11:43:23;101193;;;16.31;58.42
70198;BME280;57582;-34.876;138.628;2023-04-29T11:46:22;101206;;;16.48;57.84
70198;BME280;57582;-34.876;138.628;2023-04-29T11:49:26;101212;;;16.61;57.51
70198;BME280;57582;-34.876;138.628;2023-04-29T11:52:22;101219;;;16.76;57.25
70198;BME280;57582;-34.876;138.628;2023-04-29T11:55:22;101223;;;16.85;57.28
70198;BME280;57582;-34.876;138.628;2023-04-29T11:58:23;101226;;;16.96;57.56
70198;BME280;57582;-34.876;138.628;2023-04-29T12:01:23;101225;;;17.02;58.35
70198;BME280;57582;-34.876;138.628;2023-04-29T12:04:22;101230;;;16.97;58.68
70198;BME280;57582;-34.876;138.628;2023-04-29T12:07:23;101211;;;16.84;59.64
70198;BME280;57582;-34.876;138.628;2023-04-29T12:10:22;101219;;;16.48;60.89
70198;BME280;57582;-34.876;138.628;2023-04-29T12:13:23;101212;;;15.90;63.12
70198;BME280;57582;-34.876;138.628;2023-04-29T12:16:22;101217;;;15.49;64.92
70198;BME280;57582;-34.876;138.628;2023-04-29T12:19:22;101226;;;15.42;65.20
70198;BME280;57582;-34.876;138.628;2023-04-29T12:22:22;101219;;;15.24;66.46
70198;BME280;57582;-34.876;138.628;2023-04-29T12:25:24;101219;;;15.41;66.46
70198;BME280;57582;-34.876;138.628;2023-04-29T12:28:22;101221;;;15.39;67.16
70198;BME280;57582;-34.876;138.628;2023-04-29T12:31:22;101212;;;15.30;67.56
70198;BME280;57582;-34.876;138.628;2023-04-29T12:34:26;101207;;;15.35;67.82
70198;BME280;57582;-34.876;138.628;2023-04-29T12:37:23;101200;;;15.36;67.44
70198;BME280;57582;-34.876;138.628;2023-04-29T12:40:22;101195;;;15.49;67.37
70198;BME280;57582;-34.876;138.628;2023-04-29T12:43:26;101195;;;15.60;66.95
70198;BME280;57582;-34.876;138.628;2023-04-29T12:46:22;101181;;;15.72;66.26
70198;BME280;57582;-34.876;138.628;2023-04-29T12:49:23;101189;;;15.81;66.27
70198;BME280;57582;-34.876;138.628;2023-04-29T12:52:22;101192;;;15.91;66.09
70198;BME280;57582;-34.876;138.628;2023-04-29T12:55:22;101195;;;16.01;65.62
70198;BME280;57582;-34.876;138.628;2023-04-29T12:58:22;101193;;;16.08;65.39
70198;BME280;57582;-34.876;138.628;2023-04-29T13:01:22;101193;;;16.13;65.11
70198;BME280;57582;-34.876;138.628;2023-04-29T13:04:22;101197;;;16.11;65.77
70198;BME280;57582;-34.876;138.628;2023-04-29T13:07:22;101199;;;15.76;66.63
70198;BME280;57582;-34.876;138.628;2023-04-29T13:10:22;101199;;;15.53;67.48
70198;BME280;57582;-34.876;138.628;2023-04-29T13:13:22;101203;;;15.56;67.77
70198;BME280;57582;-34.876;138.628;2023-04-29T13:16:22;101204;;;15.53;67.97
70198;BME280;57582;-34.876;138.628;2023-04-29T13:19:22;101197;;;15.42;68.03
70198;BME280;57582;-34.876;138.628;2023-04-29T13:22:23;101083;;;14.81;67.90
70198;BME280;57582;-34.876;138.628;2023-04-29T13:25:22;101188;;;15.33;68.37
70198;BME280;57582;-34.876;138.628;2023-04-29T13:28:22;101185;;;15.42;68.09
70198;BME280;57582;-34.876;138.628;2023-04-29T13:31:22;101172;;;15.50;67.69
70198;BME280;57582;-34.876;138.628;2023-04-29T13:34:22;101169;;;15.59;67.53
70198;BME280;57582;-34.876;138.628;2023-04-29T13:37:22;101170;;;15.68;67.07
70198;BME280;57582;-34.876;138.628;2023-04-29T13:40:22;101170;;;15.68;66.95
70198;BME280;57582;-34.876;138.628;2023-04-29T13:43:22;101166;;;15.74;66.62
70198;BME280;57582;-34.876;138.628;2023-04-29T13:46:22;101170;;;15.78;66.82
70198;BME280;57582;-34.876;138.628;2023-04-29T13:49:23;101169;;;15.82;66.69
70198;BME280;57582;-34.876;138.628;2023-04-29T13:52:22;101168;;;15.57;66.54
70198;BME280;57582;-34.876;138.628;2023-04-29T13:55:22;101167;;;15.54;66.78
70198;BME280;57582;-34.876;138.628;2023-04-29T13:58:22;101162;;;15.54;66.66
70198;BME280;57582;-34.876;138.628;2023-04-29T14:01:22;101163;;;15.58;66.69
70198;BME280;57582;-34.876;138.628;2023-04-29T14:04:22;101157;;;15.51;66.51
70198;BME280;57582;-34.876;138.628;2023-04-29T14:07:22;101163;;;15.41;66.76
70198;BME280;57582;-34.876;138.628;2023-04-29T14:10:22;101164;;;15.32;67.30
70198;BME280;57582;-34.876;138.628;2023-04-29T14:13:23;101160;;;15.26;67.23
70198;BME280;57582;-34.876;138.628;2023-04-29T14:16:22;101162;;;15.32;67.20
70198;BME280;57582;-34.876;138.628;2023-04-29T14:19:22;101159;;;15.16;67.43
70198;BME280;57582;-34.876;138.628;2023-04-29T14:22:22;101161;;;15.01;67.54
70198;BME280;57582;-34.876;138.628;2023-04-29T14:25:23;101153;;;14.73;68.37
70198;BME280;57582;-34.876;138.628;2023-04-29T14:28:22;101160;;;14.42;69.66
70198;BME280;57582;-34.876;138.628;2023-04-29T14:31:23;101161;;;14.30;70.09
70198;BME280;57582;-34.876;138.628;2023-04-29T14:34:23;101160;;;14.39;69.77
70198;BME280;57582;-34.876;138.628;2023-04-29T14:37:23;101156;;;14.51;69.62
70198;BME280;57582;-34.876;138.628;2023-04-29T14:40:22;101155;;;14.63;69.00
70198;BME280;57582;-34.876;138.628;2023-04-29T14:43:22;101157;;;14.79;68.50
70198;BME280;57582;-34.876;138.628;2023-04-29T14:46:22;101153;;;14.92;67.29
70198;BME280;57582;-34.876;138.628;2023-04-29T14:49:22;101145;;;15.03;66.14
70198;BME280;57582;-34.876;138.628;2023-04-29T14:52:22;101150;;;15.09;65.74
70198;BME280;57582;-34.876;138.628;2023-04-29T14:55:22;101152;;;15.20;65.31
70198;BME280;57582;-34.876;138.628;2023-04-29T14:58:22;101155;;;15.27;64.37
70198;BME280;57582;-34.876;138.628;2023-04-29T15:01:22;101149;;;15.33;63.87
70198;BME280;57582;-34.876;138.628;2023-04-29T15:04:22;101151;;;15.37;64.09
70198;BME280;57582;-34.876;138.628;2023-04-29T15:07:22;101142;;;15.42;63.55
70198;BME280;57582;-34.876;138.628;2023-04-29T15:10:22;101143;;;15.37;62.75
70198;BME280;57582;-34.876;138.628;2023-04-29T15:13:22;101143;;;15.31;63.90
70198;BME280;57582;-34.876;138.628;2023-04-29T15:16:22;101142;;;15.27;64.40
70198;BME280;57582;-34.876;138.628;2023-04-29T15:19:22;101142;;;15.25;64.95
70198;BME280;57582;-34.876;138.628;2023-04-29T15:22:23;101146;;;15.25;65.35
70198;BME280;57582;-34.876;138.628;2023-04-29T15:25:22;101143;;;15.26;65.59
70198;BME280;57582;-34.876;138.628;2023-04-29T15:28:22;101143;;;15.31;65.74
70198;BME280;57582;-34.876;138.628;2023-04-29T15:31:22;101143;;;15.37;65.76
70198;BME280;57582;-34.876;138.628;2023-04-29T15:34:22;101137;;;15.39;65.48
70198;BME280;57582;-34.876;138.628;2023-04-29T15:37:23;101136;;;15.42;65.23
70198;BME280;57582;-34.876;138.628;2023-04-29T15:40:22;101131;;;15.40;65.37
70198;BME280;57582;-34.876;138.628;2023-04-29T15:43:22;101127;;;15.36;65.37
70198;BME280;57582;-34.876;138.628;2023-04-29T15:46:22;101126;;;15.38;65.31
70198;BME280;57582;-34.876;138.628;2023-04-29T15:49:24;101116;;;15.43;64.42
70198;BME280;57582;-34.876;138.628;2023-04-29T15:52:22;101116;;;15.43;63.47
70198;BME280;57582;-34.876;138.628;2023-04-29T15:55:22;101123;;;15.42;63.10
70198;BME280;57582;-34.876;138.628;2023-04-29T15:58:22;101118;;;15.38;62.41
70198;BME280;57582;-34.876;138.628;2023-04-29T16:01:23;101114;;;15.25;63.42